»·PEaware :: DAL1016 KLAX-KSFO

DAL1016 :: KLAX-KSFO

FLIGHT INFORMATION

Flight Status: Arrived
Operator:
Delta Air Lines
More flights by this operator :: More flights under this callsign
Pilot: Anonymous 21244 (21244)
Aircraft: AIRBUS A320
(A320)
More flights by this aircraft type
Origin: KLAX Los Angeles Intl
United States
Destination: KSFO San Francisco Intl
United States
More flights between these airports :: More routes between these airports
Route: +SUMMR1 STOKD SERFR SERFR3
File this flight plan on PilotEdge
Remarks: PBN / A1B1C1D1O1S1 DOF / 181125 REG / N320SB EET / KZOA0027 PER / C RMK / TCAS SIMBRIEF
Altitude:
(Current/Filed)
31,000ft
Speed:
(Current/Filed)
425kts
Departed: 25-Nov-18 12:15 PM
Arrived: 25-Nov-18 01:10 PM
Distance/Time
Traveled:
293nm/0:55
Distance/Time
To Go:
Arrived

Flight Plot

Page will automatically refresh every two minutes.

Flight plan parsing failed; only flown route is shown


Map Options




Map Legend


Flown Route
Filed Route
Departure Airport
Arrival Airport
Navaid (VOR, NDB)
Fix

Horizontal Profiles

Position Reports

Time Latitude Longitude Heading Altitude Ground
Speed
25-Nov-18 11:27 33.947030 -118.408330 145 124ft 0kts
25-Nov-18 11:28 33.947030 -118.408330 145 124ft 0kts
25-Nov-18 11:29 33.947030 -118.408330 145 124ft 0kts
25-Nov-18 11:30 33.947030 -118.408330 145 124ft 0kts
25-Nov-18 11:31 33.947030 -118.408330 145 124ft 0kts
25-Nov-18 11:32 33.947030 -118.408330 145 124ft 0kts
25-Nov-18 11:33 33.947030 -118.408330 145 124ft 0kts
25-Nov-18 11:34 33.947030 -118.408330 145 124ft 0kts
25-Nov-18 11:35 33.947030 -118.408330 145 124ft 0kts
25-Nov-18 11:36 33.947030 -118.408330 145 124ft 0kts
25-Nov-18 11:37 33.947030 -118.408330 145 124ft 0kts
25-Nov-18 11:38 33.947030 -118.408330 145 124ft 0kts
25-Nov-18 11:39 33.947030 -118.408330 145 124ft 0kts
25-Nov-18 11:40 33.947030 -118.408330 145 124ft 0kts
25-Nov-18 11:41 33.947030 -118.408330 145 124ft 0kts
25-Nov-18 11:42 33.947030 -118.408330 145 124ft 0kts
25-Nov-18 11:43 33.947030 -118.408330 145 124ft 0kts
25-Nov-18 11:44 33.947030 -118.408330 145 124ft 0kts
25-Nov-18 11:45 33.947030 -118.408330 145 124ft 0kts
25-Nov-18 11:46 33.947030 -118.408330 145 124ft 0kts
25-Nov-18 11:47 33.947030 -118.408330 145 124ft 0kts
25-Nov-18 11:48 33.947030 -118.408330 145 124ft 0kts
25-Nov-18 11:49 33.947030 -118.408330 145 124ft 0kts
25-Nov-18 11:50 33.947030 -118.408330 145 124ft 0kts
25-Nov-18 11:51 33.947030 -118.408330 145 124ft 0kts
25-Nov-18 11:52 33.947030 -118.408330 145 124ft 0kts
25-Nov-18 11:53 33.947030 -118.408330 145 124ft 0kts
25-Nov-18 11:54 33.947030 -118.408330 145 124ft 0kts
25-Nov-18 11:55 33.947030 -118.408330 145 124ft 0kts
25-Nov-18 11:56 33.947030 -118.408330 145 124ft 0kts
25-Nov-18 11:57 33.947030 -118.408330 145 124ft 0kts
25-Nov-18 11:58 33.947030 -118.408330 145 124ft 0kts
25-Nov-18 11:59 33.947030 -118.408330 145 124ft 0kts
25-Nov-18 12:00 33.947030 -118.408330 145 124ft 0kts
25-Nov-18 12:01 33.947030 -118.408330 145 124ft 0kts
25-Nov-18 12:02 33.947030 -118.408330 145 124ft 0kts
25-Nov-18 12:03 33.947030 -118.408330 145 124ft 0kts
25-Nov-18 12:04 33.947279 -118.408541 145 124ft 2kts
25-Nov-18 12:05 33.947592 -118.408865 112 124ft 0kts
25-Nov-18 12:06 33.947592 -118.408864 112 124ft 0kts
25-Nov-18 12:07 33.947592 -118.408864 112 124ft 0kts
25-Nov-18 12:08 33.947586 -118.408840 107 124ft 2kts
25-Nov-18 12:09 33.947574 -118.408780 102 124ft 0kts
25-Nov-18 12:10 33.947551 -118.408380 89 124ft 13kts
25-Nov-18 12:11 33.948761 -118.404816 83 121ft 17kts
25-Nov-18 12:12 33.949249 -118.401792 36 117ft 0kts
25-Nov-18 12:13 33.951162 -118.401936 353 116ft 0kts
25-Nov-18 12:14 33.951162 -118.401936 353 116ft 0kts
25-Nov-18 12:15 33.951162 -118.401936 353 116ft 0kts
25-Nov-18 12:16 33.951162 -118.401936 353 116ft 0kts
25-Nov-18 12:17 33.951809 -118.402054 337 115ft 14kts
25-Nov-18 12:18 33.950192 -118.421759 263 229ft 160kts
25-Nov-18 12:19 33.944027 -118.484146 262 2975ft 198kts
25-Nov-18 12:20 33.937834 -118.553998 265 5504ft 221kts
25-Nov-18 12:21 33.931969 -118.632955 265 8756ft 242kts
25-Nov-18 12:22 33.925863 -118.713042 264 12080ft 248kts
25-Nov-18 12:23 33.919457 -118.795533 264 14679ft 254kts
25-Nov-18 12:24 33.918067 -118.881328 272 17538ft 261kts
25-Nov-18 12:25 33.920736 -118.969688 272 20068ft 269kts
25-Nov-18 12:26 33.955616 -119.052091 317 21205ft 318kts
25-Nov-18 12:27 34.027279 -119.127605 317 22180ft 361kts
25-Nov-18 12:28 34.104733 -119.209737 316 23707ft 377kts
25-Nov-18 12:29 34.184675 -119.294727 316 25492ft 381kts
25-Nov-18 12:30 34.259952 -119.374984 315 28618ft 343kts
25-Nov-18 12:31 34.330816 -119.450746 314 30006ft 353kts
25-Nov-18 12:32 34.408518 -119.533855 315 30106ft 395kts
25-Nov-18 12:33 34.494641 -119.626261 315 30101ft 431kts
25-Nov-18 12:34 34.585899 -119.724523 314 30103ft 441kts
25-Nov-18 12:35 34.677218 -119.823202 315 30100ft 440kts
25-Nov-18 12:36 34.768581 -119.922195 314 30095ft 440kts
25-Nov-18 12:37 34.859627 -120.021132 315 30093ft 440kts
25-Nov-18 12:38 34.950879 -120.120615 315 30103ft 438kts
25-Nov-18 12:39 35.041356 -120.219565 316 30110ft 437kts
25-Nov-18 12:40 35.131705 -120.318674 316 30109ft 437kts
25-Nov-18 12:41 35.222004 -120.418044 316 30097ft 437kts
25-Nov-18 12:42 35.312422 -120.517853 316 30093ft 437kts
25-Nov-18 12:43 35.402817 -120.617953 316 30106ft 438kts
25-Nov-18 12:44 35.492852 -120.717969 315 30131ft 437kts
25-Nov-18 12:45 35.583137 -120.818579 315 30139ft 436kts
25-Nov-18 12:46 35.673054 -120.919097 315 30139ft 436kts
25-Nov-18 12:47 35.762509 -121.019419 316 30142ft 430kts
25-Nov-18 12:48 35.849385 -121.117194 317 29342ft 409kts
25-Nov-18 12:49 35.930446 -121.208722 319 27889ft 380kts
25-Nov-18 12:50 36.007264 -121.295611 319 26930ft 374kts
25-Nov-18 12:51 36.086403 -121.378908 329 26398ft 371kts
25-Nov-18 12:52 36.171907 -121.445517 328 25652ft 367kts
25-Nov-18 12:53 36.257864 -121.512741 328 24543ft 363kts
25-Nov-18 12:54 36.341893 -121.578621 328 22516ft 354kts
25-Nov-18 12:55 36.424281 -121.643368 328 20500ft 346kts
25-Nov-18 12:56 36.504612 -121.706652 327 18889ft 340kts
25-Nov-18 12:57 36.584078 -121.769463 327 17507ft 335kts
25-Nov-18 12:58 36.661807 -121.831052 327 16433ft 332kts
25-Nov-18 12:59 36.739800 -121.891810 335 15921ft 330kts
25-Nov-18 13:00 36.828547 -121.918560 345 15076ft 328kts
25-Nov-18 13:01 36.916933 -121.943294 345 14166ft 325kts
25-Nov-18 13:02 37.003252 -121.973241 341 13437ft 321kts
25-Nov-18 13:03 37.087793 -122.006206 341 12985ft 316kts
25-Nov-18 13:04 37.171280 -122.038845 340 12398ft 312kts
25-Nov-18 13:05 37.254001 -122.071266 341 11324ft 310kts
25-Nov-18 13:06 37.333553 -122.102576 341 9669ft 285kts
25-Nov-18 13:07 37.410887 -122.131199 344 6406ft 285kts
25-Nov-18 13:08 37.481354 -122.155464 344 4838ft 245kts
25-Nov-18 13:09 37.541742 -122.190272 299 3033ft 249kts
25-Nov-18 13:10 37.571998 -122.263705 298 1703ft 220kts
25-Nov-18 13:11 37.598940 -122.327980 298 605ft 182kts
25-Nov-18 13:12 37.618121 -122.373500 298 16ft 74kts
25-Nov-18 13:13 37.619823 -122.379027 242 30ft 0kts
25-Nov-18 13:14 37.618801 -122.379335 141 31ft 8kts

Navigation Log

Ident Type
Flight plan parsing failed, navigation log unavailable